createdAt,value
2023-05-02T00:04:46.713Z,11.60
2023-05-02T00:09:54.130Z,11.70
2023-05-02T00:15:01.536Z,11.80
2023-05-02T00:20:12.232Z,11.80
2023-05-02T00:25:19.553Z,11.70
2023-05-02T00:30:26.299Z,11.70
2023-05-02T00:35:35.765Z,11.80
2023-05-02T00:40:54.466Z,11.70
2023-05-02T00:46:01.425Z,11.60
2023-05-02T00:51:09.916Z,11.60
2023-05-02T00:56:17.327Z,11.50
2023-05-02T01:01:45.113Z,11.60
2023-05-02T01:07:05.787Z,11.60
2023-05-02T01:12:23.008Z,11.50
2023-05-02T01:17:34.122Z,11.40
2023-05-02T01:22:42.305Z,11.40
2023-05-02T01:28:27.317Z,11.30
2023-05-02T01:33:37.014Z,11.40
2023-05-02T01:38:45.935Z,11.20
2023-05-02T01:43:53.688Z,11.30
2023-05-02T01:49:07.868Z,11.30
2023-05-02T01:54:17.340Z,11.40
2023-05-02T01:59:26.209Z,11.30
2023-05-02T02:04:34.991Z,11.20
2023-05-02T02:09:42.425Z,11.10
2023-05-02T02:14:53.084Z,11.10
2023-05-02T02:20:02.692Z,11.10
2023-05-02T02:25:16.852Z,11.00
2023-05-02T02:30:23.884Z,11.00
2023-05-02T02:35:35.299Z,11.10
2023-05-02T02:41:01.377Z,11.20
2023-05-02T02:46:45.508Z,11.20
2023-05-02T02:51:57.822Z,11.30
2023-05-02T02:57:11.923Z,11.30
2023-05-02T03:02:21.869Z,11.30
2023-05-02T03:07:31.941Z,11.30
2023-05-02T03:12:40.307Z,11.30
2023-05-02T03:17:47.439Z,11.30
2023-05-02T03:22:54.838Z,11.30
2023-05-02T03:28:03.972Z,11.30
2023-05-02T03:33:10.918Z,11.30
2023-05-02T03:38:17.820Z,11.30
2023-05-02T03:43:24.756Z,11.20
2023-05-02T03:48:32.420Z,11.20
2023-05-02T03:53:39.374Z,11.00
2023-05-02T03:58:46.342Z,11.10
2023-05-02T04:03:55.258Z,11.10
2023-05-02T04:09:02.246Z,11.00
2023-05-02T04:14:09.079Z,11.00
2023-05-02T04:19:15.868Z,11.00
2023-05-02T04:24:23.576Z,11.00
2023-05-02T04:29:30.868Z,11.00
2023-05-02T04:34:37.910Z,10.90
2023-05-02T04:39:44.780Z,10.90
2023-05-02T04:44:52.543Z,10.80
2023-05-02T04:49:59.800Z,10.90
2023-05-02T04:55:07.936Z,10.90
2023-05-02T05:00:16.580Z,11.00
2023-05-02T05:05:23.570Z,11.00
2023-05-02T05:10:31.087Z,11.00
2023-05-02T05:15:38.243Z,10.90
2023-05-02T05:20:45.129Z,11.10
2023-05-02T05:25:52.762Z,11.00
2023-05-02T05:30:59.720Z,11.20
2023-05-02T05:36:17.523Z,11.30
2023-05-02T05:41:25.054Z,11.30
2023-05-02T05:46:31.842Z,11.20
2023-05-02T05:51:38.726Z,11.10
2023-05-02T05:56:45.737Z,11.20
2023-05-02T06:01:52.605Z,11.00
2023-05-02T06:06:59.897Z,11.00
2023-05-02T06:12:07.605Z,11.10
2023-05-02T06:17:14.907Z,11.00
2023-05-02T06:22:22.414Z,11.10
2023-05-02T06:27:29.878Z,11.10
2023-05-02T06:32:38.196Z,11.10
2023-05-02T06:37:45.010Z,11.00
2023-05-02T06:42:54.308Z,10.90
2023-05-02T06:48:01.214Z,10.90
2023-05-02T06:53:08.064Z,10.90
2023-05-02T06:58:15.124Z,11.00
2023-05-02T07:03:21.821Z,10.90
2023-05-02T07:08:28.749Z,10.90
2023-05-02T07:13:36.628Z,10.90
2023-05-02T07:18:52.241Z,10.80
2023-05-02T07:23:59.310Z,10.80
2023-05-02T07:29:07.189Z,10.90
2023-05-02T07:34:17.150Z,10.80
2023-05-02T07:39:24.367Z,10.70
2023-05-02T07:44:31.252Z,10.70
2023-05-02T07:49:38.365Z,10.80
2023-05-02T07:54:45.512Z,10.90
2023-05-02T07:59:52.356Z,11.10
2023-05-02T08:04:59.146Z,11.20
2023-05-02T08:10:09.894Z,11.10
2023-05-02T08:15:16.676Z,11.20
2023-05-02T08:20:25.172Z,11.50
2023-05-02T08:25:32.106Z,11.50
2023-05-02T08:30:39.044Z,11.60
2023-05-02T08:35:45.794Z,11.70
2023-05-02T08:40:52.914Z,11.70
2023-05-02T08:46:02.072Z,11.60
2023-05-02T08:51:16.188Z,11.40
2023-05-02T08:56:23.480Z,11.30
2023-05-02T09:01:35.180Z,11.40
2023-05-02T09:06:42.489Z,11.20
2023-05-02T09:11:49.963Z,11.60
2023-05-02T09:17:01.394Z,11.70
2023-05-02T09:22:08.264Z,11.80
2023-05-02T09:27:17.384Z,11.80
2023-05-02T09:32:31.690Z,11.90
2023-05-02T09:37:38.944Z,11.90
2023-05-02T09:42:46.010Z,11.90
2023-05-02T09:48:31.985Z,11.90
2023-05-02T09:53:43.306Z,11.90
2023-05-02T09:58:50.684Z,12.00
2023-05-02T10:03:57.936Z,11.90
2023-05-02T10:09:05.638Z,11.90
2023-05-02T10:14:22.136Z,11.80
2023-05-02T10:19:32.388Z,12.00
2023-05-02T10:24:41.728Z,12.00
2023-05-02T10:29:50.196Z,12.10
2023-05-02T10:34:59.896Z,12.20
2023-05-02T10:40:13.085Z,12.20
2023-05-02T10:45:38.774Z,12.40
2023-05-02T10:50:53.933Z,12.60
2023-05-02T10:56:18.967Z,12.60
2023-05-02T11:01:38.413Z,12.60
2023-05-02T11:07:04.431Z,12.40
2023-05-02T11:12:11.571Z,12.30
2023-05-02T11:17:21.299Z,12.10
2023-05-02T11:22:35.950Z,12.20
2023-05-02T11:27:45.020Z,12.20
2023-05-02T11:32:58.061Z,12.20
2023-05-02T11:38:13.415Z,12.10
2023-05-02T11:43:27.412Z,12.30
2023-05-02T11:48:35.217Z,12.30
2023-05-02T11:53:43.555Z,12.30
2023-05-02T11:59:00.514Z,12.30
2023-05-02T12:04:10.705Z,12.10
2023-05-02T12:09:19.839Z,12.10
2023-05-02T12:14:33.544Z,12.10
2023-05-02T12:19:40.783Z,12.10
2023-05-02T12:24:47.540Z,12.00
2023-05-02T12:29:57.292Z,11.80
2023-05-02T12:35:06.377Z,11.60
2023-05-02T12:40:21.308Z,11.70
2023-05-02T12:45:33.556Z,11.60
2023-05-02T12:50:41.547Z,11.60
2023-05-02T12:55:48.702Z,11.60
2023-05-02T13:00:55.651Z,11.50
2023-05-02T13:06:03.149Z,11.10
2023-05-02T13:11:10.340Z,11.30
2023-05-02T13:16:17.442Z,11.50
2023-05-02T13:21:24.552Z,11.70
2023-05-02T13:26:31.885Z,11.70
2023-05-02T13:31:38.884Z,11.70
2023-05-02T13:36:46.730Z,11.80
2023-05-02T13:41:53.952Z,11.70
2023-05-02T13:47:01.208Z,11.70
2023-05-02T13:52:08.543Z,11.90
2023-05-02T13:57:15.622Z,11.80
2023-05-02T14:02:23.072Z,11.70
2023-05-02T14:07:30.235Z,11.50
2023-05-02T14:12:37.082Z,11.70
2023-05-02T14:17:44.176Z,11.80
2023-05-02T14:22:51.590Z,11.60
2023-05-02T14:27:58.841Z,11.60
2023-05-02T14:33:05.865Z,11.50
2023-05-02T14:38:12.752Z,11.50
2023-05-02T14:43:21.937Z,11.60
2023-05-02T14:48:28.851Z,11.40
2023-05-02T14:53:36.414Z,11.50
2023-05-02T14:58:43.274Z,11.50
2023-05-02T15:04:05.780Z,11.50
2023-05-02T15:09:02.144Z,11.30
2023-05-02T15:14:09.656Z,11.20
2023-05-02T15:19:16.800Z,11.20
2023-05-02T15:24:24.856Z,10.90
2023-05-02T15:29:31.945Z,11.10
2023-05-02T15:34:38.639Z,11.00
2023-05-02T15:39:45.972Z,10.70
2023-05-02T15:44:54.458Z,10.70
2023-05-02T15:50:02.111Z,10.60
2023-05-02T15:55:09.933Z,10.60
2023-05-02T16:00:18.412Z,10.50
2023-05-02T16:05:25.812Z,10.70
2023-05-02T16:10:33.641Z,10.60
2023-05-02T16:15:41.287Z,10.60
2023-05-02T16:20:50.111Z,10.50
2023-05-02T16:26:02.310Z,10.40
2023-05-02T16:31:11.805Z,10.40
2023-05-02T16:36:19.212Z,10.40
2023-05-02T16:41:26.414Z,10.20
2023-05-02T16:46:34.393Z,10.20
2023-05-02T16:51:42.385Z,10.20
2023-05-02T16:56:49.721Z,10.30
2023-05-02T17:01:57.562Z,10.30
2023-05-02T17:07:04.667Z,10.30
2023-05-02T17:12:13.291Z,10.30
2023-05-02T17:17:22.239Z,10.20
2023-05-02T17:22:29.065Z,10.30
2023-05-02T17:27:37.745Z,10.30
2023-05-02T17:32:45.618Z,10.30
2023-05-02T17:37:53.169Z,10.10
2023-05-02T17:42:59.986Z,10.10
2023-05-02T17:48:06.974Z,10.20
2023-05-02T17:53:15.447Z,10.20
2023-05-02T17:58:22.592Z,10.10
2023-05-02T18:03:30.366Z,10.00
2023-05-02T18:08:37.688Z,10.00
2023-05-02T18:13:44.517Z,10.00
2023-05-02T18:18:51.366Z,9.70
2023-05-02T18:23:58.409Z,9.60
2023-05-02T18:29:05.217Z,9.50
2023-05-02T18:34:13.189Z,9.60
2023-05-02T18:39:22.304Z,9.60
2023-05-02T18:44:29.393Z,9.60
2023-05-02T18:49:36.775Z,9.70
2023-05-02T18:54:44.467Z,9.70
2023-05-02T18:59:51.450Z,9.40
2023-05-02T19:04:58.455Z,9.40
2023-05-02T19:10:06.731Z,9.70
2023-05-02T19:15:14.028Z,9.60
2023-05-02T19:20:21.498Z,9.40
2023-05-02T19:25:28.684Z,9.20
2023-05-02T19:30:35.554Z,9.30
2023-05-02T19:35:42.768Z,9.50
2023-05-02T19:40:49.896Z,9.30
2023-05-02T19:45:58.242Z,9.40
2023-05-02T19:51:06.395Z,9.30
2023-05-02T19:56:13.481Z,9.30
2023-05-02T20:01:20.685Z,9.10
2023-05-02T20:06:28.708Z,9.10
2023-05-02T20:11:35.619Z,9.30
2023-05-02T20:16:42.475Z,9.40
2023-05-02T20:21:49.410Z,9.40
2023-05-02T20:26:56.210Z,9.20
2023-05-02T20:32:03.086Z,9.30
2023-05-02T20:37:11.215Z,9.20
2023-05-02T20:42:22.835Z,9.20
2023-05-02T20:47:32.367Z,9.30
2023-05-02T20:52:40.234Z,9.20
2023-05-02T20:57:49.485Z,9.10
2023-05-02T21:02:56.884Z,9.40
2023-05-02T21:08:03.960Z,9.30
2023-05-02T21:13:11.126Z,9.40
2023-05-02T21:18:18.082Z,9.20
2023-05-02T21:23:26.584Z,9.20
2023-05-02T21:28:33.429Z,9.20
2023-05-02T21:33:41.755Z,9.10
2023-05-02T21:38:48.526Z,9.20
2023-05-02T21:43:55.333Z,9.20
2023-05-02T21:49:02.068Z,9.40
2023-05-02T21:54:09.331Z,9.30
2023-05-02T21:59:16.414Z,9.20
2023-05-02T22:04:24.781Z,9.10
2023-05-02T22:09:33.594Z,9.10
2023-05-02T22:14:45.359Z,9.10
2023-05-02T22:19:53.570Z,9.20
2023-05-02T22:25:02.160Z,9.00
2023-05-02T22:30:11.507Z,9.10
2023-05-02T22:35:18.436Z,8.90
2023-05-02T22:40:25.271Z,9.00
2023-05-02T22:45:32.151Z,9.00
2023-05-02T22:50:38.987Z,9.00
2023-05-02T22:55:46.238Z,9.00
2023-05-02T23:00:53.120Z,9.10
2023-05-02T23:06:00.342Z,9.10
2023-05-02T23:11:07.263Z,9.10
2023-05-02T23:16:14.140Z,9.00
2023-05-02T23:21:21.096Z,8.90
2023-05-02T23:26:27.931Z,9.00
2023-05-02T23:31:35.407Z,8.80
2023-05-02T23:36:42.335Z,8.80
2023-05-02T23:41:49.108Z,8.80
2023-05-02T23:46:56.106Z,8.80
2023-05-02T23:52:02.981Z,8.70
2023-05-02T23:57:10.355Z,8.90
